createdAt,value
2018-12-13T00:00:14.238Z,7.60
2018-12-13T00:02:43.216Z,8.43
2018-12-13T00:05:12.190Z,8.90
2018-12-13T00:07:40.701Z,9.27
2018-12-13T00:10:09.235Z,7.57
2018-12-13T00:12:38.461Z,8.00
2018-12-13T00:15:11.668Z,7.60
2018-12-13T00:17:40.719Z,8.20
2018-12-13T00:20:13.235Z,7.97
2018-12-13T00:22:42.166Z,7.10
2018-12-13T00:25:15.355Z,7.40
2018-12-13T00:27:44.295Z,8.90
2018-12-13T00:30:18.419Z,8.33
2018-12-13T00:32:47.752Z,8.83
2018-12-13T00:35:21.671Z,13.77
2018-12-13T00:37:50.206Z,9.90
2018-12-13T00:40:23.283Z,7.77
2018-12-13T00:42:52.287Z,7.53
2018-12-13T00:45:25.251Z,8.30
2018-12-13T00:47:54.029Z,7.77
2018-12-13T00:50:35.953Z,8.17
2018-12-13T00:53:04.738Z,8.17
2018-12-13T00:55:33.691Z,9.57
2018-12-13T00:58:02.679Z,9.83
2018-12-13T01:00:34.915Z,9.30
2018-12-13T01:03:03.887Z,8.07
2018-12-13T01:05:36.249Z,8.20
2018-12-13T01:08:05.475Z,8.07
2018-12-13T01:10:38.619Z,9.03
2018-12-13T01:13:07.583Z,8.43
2018-12-13T01:15:41.015Z,8.03
2018-12-13T01:18:09.975Z,8.47
2018-12-13T01:20:45.524Z,8.10
2018-12-13T01:23:14.747Z,8.73
2018-12-13T01:25:47.789Z,8.27
2018-12-13T01:28:16.771Z,8.20
2018-12-13T01:30:49.498Z,8.47
2018-12-13T01:33:18.303Z,7.97
2018-12-13T01:35:52.588Z,9.27
2018-12-13T01:38:21.563Z,9.10
2018-12-13T01:40:56.412Z,9.13
2018-12-13T01:43:25.383Z,8.37
2018-12-13T01:45:59.159Z,8.23
2018-12-13T01:48:28.041Z,7.97
2018-12-13T01:53:30.656Z,8.10
2018-12-13T01:56:00.417Z,8.70
2018-12-13T01:58:32.964Z,8.30
2018-12-13T02:01:01.762Z,9.10
2018-12-13T02:03:30.716Z,8.93
2018-12-13T02:05:59.690Z,8.40
2018-12-13T02:08:29.064Z,8.23
2018-12-13T02:10:58.150Z,8.07
2018-12-13T02:13:27.286Z,8.37
2018-12-13T02:15:56.531Z,8.00
2018-12-13T02:18:25.527Z,8.13
2018-12-13T02:20:54.059Z,7.80
2018-12-13T02:23:23.038Z,7.60
2018-12-13T02:25:51.979Z,8.43
2018-12-13T02:28:33.599Z,7.93
2018-12-13T02:31:02.571Z,7.43
2018-12-13T02:33:31.374Z,7.97
2018-12-13T02:36:00.369Z,8.10
2018-12-13T02:38:30.676Z,7.90
2018-12-13T02:40:59.546Z,8.10
2018-12-13T02:43:32.902Z,8.53
2018-12-13T02:46:01.411Z,6.93
2018-12-13T02:48:34.431Z,8.23
2018-12-13T02:51:02.990Z,8.07
2018-12-13T02:53:38.800Z,7.03
2018-12-13T02:56:08.072Z,8.30
2018-12-13T02:58:40.894Z,7.80
2018-12-13T03:01:09.864Z,8.23
2018-12-13T03:03:42.751Z,7.33
2018-12-13T03:06:11.730Z,8.60
2018-12-13T03:08:43.883Z,8.03
2018-12-13T03:11:13.150Z,8.20
2018-12-13T03:13:41.650Z,8.23
2018-12-13T03:16:10.153Z,9.03
2018-12-13T03:18:38.942Z,9.23
2018-12-13T03:21:07.894Z,9.73
2018-12-13T03:23:36.867Z,9.07
2018-12-13T03:26:05.646Z,8.27
2018-12-13T03:28:34.144Z,7.93
2018-12-13T03:31:04.460Z,7.73
2018-12-13T03:33:33.739Z,8.83
2018-12-13T03:36:06.784Z,8.50
2018-12-13T03:38:35.307Z,8.07
2018-12-13T03:41:04.580Z,8.20
2018-12-13T03:43:33.543Z,8.37
2018-12-13T03:46:02.561Z,8.87
2018-12-13T03:48:31.791Z,8.23
2018-12-13T03:51:00.749Z,8.33
2018-12-13T03:53:30.287Z,9.47
2018-12-13T03:55:59.100Z,8.10
2018-12-13T03:58:28.883Z,7.70
2018-12-13T04:00:57.839Z,8.17
2018-12-13T04:03:27.587Z,9.20
2018-12-13T04:05:56.571Z,9.60
2018-12-13T04:08:25.094Z,8.50
2018-12-13T04:10:54.315Z,8.40
2018-12-13T04:13:27.888Z,7.60
2018-12-13T04:15:56.843Z,8.10
2018-12-13T04:18:30.758Z,7.83
2018-12-13T04:20:59.713Z,6.70
2018-12-13T04:23:40.916Z,7.83
2018-12-13T04:26:09.872Z,8.00
2018-12-13T04:28:38.655Z,8.40
2018-12-13T04:31:07.606Z,9.40
2018-12-13T04:33:37.397Z,8.60
2018-12-13T04:36:06.743Z,7.83
2018-12-13T04:38:39.915Z,8.33
2018-12-13T04:41:08.435Z,8.43
2018-12-13T04:43:50.476Z,8.57
2018-12-13T04:46:18.998Z,8.07
2018-12-13T04:48:48.250Z,10.00
2018-12-13T04:51:17.215Z,8.50
2018-12-13T04:53:50.157Z,8.13
2018-12-13T04:56:18.983Z,7.43
2018-12-13T04:58:51.287Z,8.83
2018-12-13T05:01:19.815Z,9.63
2018-12-13T05:03:53.011Z,9.73
2018-12-13T05:06:21.534Z,8.13
2018-12-13T05:11:24.290Z,8.57
2018-12-13T05:13:53.155Z,8.03
2018-12-13T05:16:22.146Z,7.80
2018-12-13T05:18:51.383Z,8.87
2018-12-13T05:21:19.903Z,9.13
2018-12-13T05:23:48.855Z,8.70
2018-12-13T05:26:17.651Z,9.20
2018-12-13T05:28:46.203Z,8.33
2018-12-13T05:31:15.175Z,7.47
2018-12-13T05:33:44.395Z,8.27
2018-12-13T05:36:14.936Z,8.23
2018-12-13T05:38:43.930Z,8.97
2018-12-13T05:41:25.366Z,8.60
2018-12-13T05:43:54.367Z,8.33
2018-12-13T05:46:23.358Z,8.63
2018-12-13T05:48:52.464Z,8.23
2018-12-13T05:51:22.004Z,8.20
2018-12-13T05:53:51.029Z,7.50
2018-12-13T05:56:32.322Z,8.20
2018-12-13T05:59:01.149Z,9.03
2018-12-13T06:04:03.641Z,8.13
2018-12-13T06:06:32.406Z,8.77
2018-12-13T06:09:01.078Z,8.57
2018-12-13T06:11:31.288Z,7.77
2018-12-13T06:14:00.257Z,8.20
2018-12-13T06:16:34.166Z,8.70
2018-12-13T06:19:03.008Z,8.20
2018-12-13T06:21:37.034Z,8.13
2018-12-13T06:24:05.801Z,9.03
2018-12-13T06:26:39.393Z,7.90
2018-12-13T06:29:07.955Z,8.87
2018-12-13T06:31:46.680Z,7.53
2018-12-13T06:34:15.377Z,8.03
2018-12-13T06:36:45.990Z,7.70
2018-12-13T06:39:15.274Z,7.50
2018-12-13T06:41:56.615Z,8.70
2018-12-13T06:44:25.874Z,7.30
2018-12-13T06:46:55.198Z,7.77
2018-12-13T06:49:24.206Z,8.73
2018-12-13T06:51:53.673Z,7.33
2018-12-13T06:54:22.264Z,9.10
2018-12-13T06:57:04.767Z,8.53
2018-12-13T06:59:35.120Z,9.37
2018-12-13T07:02:03.995Z,8.70
2018-12-13T07:04:32.995Z,9.10
2018-12-13T07:07:02.902Z,8.90
2018-12-13T07:09:31.894Z,8.67
2018-12-13T07:12:08.451Z,9.00
2018-12-13T07:14:37.713Z,9.33
2018-12-13T07:17:10.342Z,8.40
2018-12-13T07:19:39.342Z,9.90
2018-12-13T07:22:12.768Z,8.90
2018-12-13T07:24:41.760Z,8.77
2018-12-13T07:27:14.702Z,9.57
2018-12-13T07:29:44.156Z,10.10
2018-12-13T07:32:17.925Z,10.13
2018-12-13T07:34:47.001Z,11.43
2018-12-13T07:37:19.291Z,10.77
2018-12-13T07:39:48.318Z,10.07
2018-12-13T07:42:30.673Z,11.73
2018-12-13T07:44:59.526Z,12.80
2018-12-13T07:47:28.635Z,13.20
2018-12-13T07:49:57.635Z,12.07
2018-12-13T07:52:31.518Z,11.63
2018-12-13T07:55:00.322Z,11.67
2018-12-13T07:57:29.553Z,12.23
2018-12-13T07:59:58.969Z,11.20
2018-12-13T08:02:31.500Z,10.63
2018-12-13T08:05:01.092Z,11.00
2018-12-13T08:07:35.533Z,10.00
2018-12-13T08:10:05.110Z,9.97
2018-12-13T08:12:35.387Z,10.00
2018-12-13T08:15:05.603Z,10.33
2018-12-13T08:17:39.441Z,8.40
2018-12-13T08:20:08.647Z,9.40
2018-12-13T08:22:41.793Z,8.00
2018-12-13T08:25:11.000Z,9.00
2018-12-13T08:27:46.769Z,8.00
2018-12-13T08:30:16.296Z,9.03
2018-12-13T08:32:48.930Z,8.43
2018-12-13T08:35:17.747Z,7.57
2018-12-13T08:37:51.535Z,7.97
2018-12-13T08:40:20.637Z,8.37
2018-12-13T08:42:52.811Z,8.37
2018-12-13T08:45:21.890Z,8.00
2018-12-13T08:47:55.920Z,8.20
2018-12-13T08:50:24.802Z,10.77
2018-12-13T08:53:00.641Z,15.10
2018-12-13T08:55:30.563Z,19.23
2018-12-13T08:58:03.449Z,12.50
2018-12-13T09:00:32.975Z,15.53
2018-12-13T09:03:04.670Z,26.43
2018-12-13T09:05:33.645Z,24.47
2018-12-13T09:08:10.880Z,9.90
2018-12-13T09:10:39.871Z,13.37
2018-12-13T09:13:12.171Z,10.90
2018-12-13T09:15:42.562Z,9.17
2018-12-13T09:18:14.551Z,8.57
2018-12-13T09:20:43.538Z,8.63
2018-12-13T09:23:24.804Z,8.93
2018-12-13T09:25:53.820Z,7.87
2018-12-13T09:28:22.607Z,8.60
2018-12-13T09:30:51.623Z,8.43
2018-12-13T09:33:21.104Z,9.23
2018-12-13T09:35:50.108Z,8.23
2018-12-13T09:38:22.870Z,9.93
2018-12-13T09:40:51.863Z,9.73
2018-12-13T09:43:25.266Z,8.20
2018-12-13T09:45:54.253Z,8.27
2018-12-13T09:48:27.247Z,8.37
2018-12-13T09:50:56.186Z,9.70
2018-12-13T09:53:29.682Z,9.37
2018-12-13T09:55:58.259Z,8.80
2018-12-13T09:58:31.514Z,8.17
2018-12-13T10:01:00.577Z,9.77
2018-12-13T10:03:34.121Z,8.20
2018-12-13T10:06:04.020Z,8.93
2018-12-13T10:08:37.207Z,7.67
2018-12-13T10:11:06.223Z,7.87
2018-12-13T10:13:39.700Z,8.43
2018-12-13T10:16:08.251Z,7.50
2018-12-13T10:18:36.843Z,7.53
2018-12-13T10:21:05.815Z,8.50
2018-12-13T10:23:34.362Z,8.97
2018-12-13T10:26:05.468Z,7.40
2018-12-13T10:28:33.996Z,7.20
2018-12-13T10:31:02.985Z,8.77
2018-12-13T10:33:31.964Z,6.90
2018-12-13T10:36:00.973Z,8.20
2018-12-13T10:38:29.981Z,9.83
2018-12-13T10:40:59.014Z,7.40
2018-12-13T10:43:28.372Z,8.03
2018-12-13T10:46:00.641Z,7.23
2018-12-13T10:48:29.870Z,9.40
2018-12-13T10:51:03.219Z,8.67
2018-12-13T10:53:32.218Z,9.07
2018-12-13T10:56:07.770Z,10.20
2018-12-13T10:58:36.309Z,7.37
2018-12-13T11:01:20.446Z,8.20
2018-12-13T11:03:48.986Z,9.37
2018-12-13T11:06:17.899Z,8.00
2018-12-13T11:08:46.864Z,7.97
2018-12-13T11:11:15.952Z,9.03
2018-12-13T11:13:45.272Z,8.30
2018-12-13T11:16:19.331Z,8.80
2018-12-13T11:18:48.972Z,8.07
2018-12-13T11:21:21.415Z,8.07
2018-12-13T11:23:50.452Z,7.90
2018-12-13T11:26:22.951Z,7.90
2018-12-13T11:30:06.028Z,8.13
2018-12-13T11:32:35.109Z,7.13
2018-12-13T11:35:03.944Z,7.97
2018-12-13T11:37:33.055Z,7.10
2018-12-13T11:40:02.617Z,8.03
2018-12-13T11:42:35.325Z,8.30
2018-12-13T11:45:06.877Z,8.00
2018-12-13T11:47:36.437Z,7.30
2018-12-13T11:50:05.473Z,8.17
2018-12-13T11:52:35.845Z,7.60
2018-12-13T11:55:09.452Z,7.77
2018-12-13T11:57:38.461Z,8.03
2018-12-13T12:00:07.691Z,7.07
2018-12-13T12:02:40.631Z,7.60
2018-12-13T12:05:09.309Z,7.27
2018-12-13T12:07:43.201Z,6.27
2018-12-13T12:10:12.001Z,7.27
2018-12-13T12:12:44.536Z,7.07
2018-12-13T12:15:13.439Z,7.27
2018-12-13T12:17:42.869Z,7.97
2018-12-13T12:20:14.745Z,7.00
2018-12-13T12:22:44.064Z,8.10
2018-12-13T12:25:13.262Z,7.80
2018-12-13T12:27:42.327Z,7.33
2018-12-13T12:30:12.170Z,8.27
2018-12-13T12:32:40.682Z,6.37
2018-12-13T12:35:09.714Z,8.13
2018-12-13T12:37:38.815Z,7.70
2018-12-13T12:40:08.334Z,7.13
2018-12-13T12:42:36.900Z,6.63
2018-12-13T12:45:08.965Z,7.50
2018-12-13T12:47:37.980Z,7.27
2018-12-13T12:50:10.596Z,7.93
2018-12-13T12:52:39.987Z,7.37
2018-12-13T12:55:12.889Z,9.17
2018-12-13T12:57:41.424Z,7.40
2018-12-13T13:02:50.248Z,9.00
2018-12-13T13:05:19.000Z,7.97
2018-12-13T13:07:48.014Z,7.50
2018-12-13T13:10:20.211Z,9.20
2018-12-13T13:12:48.789Z,9.17
2018-12-13T13:15:30.583Z,8.37
2018-12-13T13:17:59.145Z,8.13
2018-12-13T13:20:29.062Z,8.87
2018-12-13T13:22:58.047Z,9.33
2018-12-13T13:25:26.847Z,8.30
2018-12-13T13:27:55.935Z,9.17
2018-12-13T13:30:29.046Z,8.23
2018-12-13T13:32:57.718Z,8.27
2018-12-13T13:35:31.639Z,8.47
2018-12-13T13:38:00.595Z,9.53
2018-12-13T13:40:36.653Z,9.53
2018-12-13T13:43:05.223Z,8.67
2018-12-13T13:45:37.320Z,8.83
2018-12-13T13:48:06.284Z,8.00
2018-12-13T13:50:48.697Z,8.53
2018-12-13T13:53:17.241Z,8.70
2018-12-13T13:55:46.549Z,7.80
2018-12-13T13:58:15.842Z,8.80
2018-12-13T14:00:44.456Z,8.17
2018-12-13T14:03:14.257Z,8.50
2018-12-13T14:05:48.619Z,8.63
2018-12-13T14:08:17.398Z,8.40
2018-12-13T14:10:49.987Z,7.90
2018-12-13T14:13:18.693Z,8.50
2018-12-13T14:15:51.043Z,8.70
2018-12-13T14:18:20.135Z,8.27
2018-12-13T14:20:48.814Z,8.30
2018-12-13T14:23:17.715Z,8.33
2018-12-13T14:25:46.780Z,8.27
2018-12-13T14:28:16.510Z,8.63
2018-12-13T14:30:45.198Z,10.33
2018-12-13T14:35:54.350Z,13.53
2018-12-13T14:38:23.058Z,10.37
2018-12-13T14:40:52.503Z,10.07
2018-12-13T14:43:21.061Z,11.47
2018-12-13T14:45:50.062Z,10.27
2018-12-13T14:48:19.077Z,12.60
2018-12-13T14:50:47.808Z,13.50
2018-12-13T14:53:16.488Z,11.17
2018-12-13T14:55:45.578Z,9.37
2018-12-13T14:58:18.228Z,8.37
2018-12-13T15:00:46.940Z,9.23
2018-12-13T15:03:19.838Z,9.67
2018-12-13T15:05:48.539Z,11.83
2018-12-13T15:08:22.527Z,9.03
2018-12-13T15:10:51.707Z,9.50
2018-12-13T15:13:25.183Z,9.20
2018-12-13T15:15:54.484Z,9.73
2018-12-13T15:18:30.644Z,12.00
2018-12-13T15:20:59.661Z,15.50
2018-12-13T15:23:31.027Z,15.70
2018-12-13T15:25:59.698Z,34.37
2018-12-13T15:28:33.132Z,28.43
2018-12-13T15:31:02.315Z,15.07
2018-12-13T15:33:43.412Z,19.27
2018-12-13T15:36:12.375Z,14.97
2018-12-13T15:38:41.418Z,17.00
2018-12-13T15:41:10.454Z,14.93
2018-12-13T15:43:42.143Z,13.20
2018-12-13T15:46:10.893Z,12.93
2018-12-13T15:51:03.716Z,10.40
2018-12-13T15:53:32.258Z,11.20
2018-12-13T15:56:00.946Z,11.40
2018-12-13T15:58:31.116Z,9.50
2018-12-13T16:00:59.667Z,9.30
2018-12-13T16:03:28.770Z,10.90
2018-12-13T16:05:59.073Z,10.40
2018-12-13T16:08:27.718Z,12.83
2018-12-13T16:10:56.275Z,13.17
2018-12-13T16:13:25.551Z,14.00
2018-12-13T16:15:59.070Z,12.43
2018-12-13T16:18:28.289Z,11.67
2018-12-13T16:21:02.047Z,9.63
2018-12-13T16:23:32.038Z,9.77
2018-12-13T16:26:05.920Z,9.60
2018-12-13T16:28:34.774Z,14.37
2018-12-13T16:31:09.196Z,18.63
2018-12-13T16:33:38.192Z,13.57
2018-12-13T16:36:12.978Z,20.90
2018-12-13T16:38:41.968Z,14.87
2018-12-13T16:41:15.343Z,12.87
2018-12-13T16:43:44.587Z,11.10
2018-12-13T16:46:18.539Z,11.77
2018-12-13T16:48:47.579Z,13.40
2018-12-13T16:51:28.994Z,10.00
2018-12-13T16:53:57.827Z,9.77
2018-12-13T16:56:27.365Z,8.80
2018-12-13T16:58:55.979Z,8.17
2018-12-13T17:04:01.586Z,8.07
2018-12-13T17:06:31.095Z,11.57
2018-12-13T17:08:59.974Z,10.87
2018-12-13T17:11:29.802Z,11.67
2018-12-13T17:13:58.821Z,13.20
2018-12-13T17:16:32.690Z,13.90
2018-12-13T17:19:01.279Z,14.13
2018-12-13T17:21:35.352Z,13.40
2018-12-13T17:24:03.887Z,10.97
2018-12-13T17:26:36.873Z,9.23
2018-12-13T17:29:05.686Z,8.60
2018-12-13T17:31:39.976Z,8.77
2018-12-13T17:34:08.585Z,7.67
2018-12-13T17:39:20.462Z,7.73
2018-12-13T17:41:49.487Z,7.13
2018-12-13T17:44:18.036Z,10.30
2018-12-13T17:46:50.613Z,11.00
2018-12-13T17:49:20.304Z,10.60
2018-12-13T17:51:51.935Z,7.30
2018-12-13T17:54:21.213Z,7.93
2018-12-13T17:56:53.855Z,6.60
2018-12-13T17:59:22.640Z,7.37
2018-12-13T18:04:24.423Z,8.80
2018-12-13T18:06:58.583Z,8.10
2018-12-13T18:09:27.594Z,7.60
2018-12-13T18:11:56.513Z,5.87
2018-12-13T18:14:26.431Z,6.83
2018-12-13T18:16:55.774Z,6.87
2018-12-13T18:19:25.347Z,6.77
2018-12-13T18:21:55.508Z,6.33
2018-12-13T18:24:24.776Z,6.17
2018-12-13T18:26:54.438Z,6.13
2018-12-13T18:29:26.149Z,6.73
2018-12-13T18:31:55.259Z,6.37
2018-12-13T18:34:26.220Z,6.20
2018-12-13T18:37:03.470Z,7.27
2018-12-13T18:39:38.980Z,5.20
2018-12-13T18:42:08.859Z,6.07
2018-12-13T18:44:39.921Z,5.97
2018-12-13T18:47:13.730Z,6.63
2018-12-13T18:49:44.407Z,6.13
2018-12-13T18:52:13.495Z,6.00
2018-12-13T18:54:42.781Z,5.93
2018-12-13T18:57:12.564Z,5.43
2018-12-13T18:59:42.076Z,5.50
2018-12-13T19:02:11.335Z,6.63
2018-12-13T19:04:41.843Z,6.33
2018-12-13T19:07:11.891Z,24.67
2018-12-13T19:09:41.271Z,6.70
2018-12-13T19:12:11.351Z,5.83
2018-12-13T19:14:41.446Z,6.40
2018-12-13T19:17:10.509Z,6.30
2018-12-13T19:19:41.609Z,7.73
2018-12-13T19:22:10.759Z,9.33
2018-12-13T19:24:43.487Z,8.10
2018-12-13T19:27:12.867Z,7.90
2018-12-13T19:29:54.755Z,8.57
2018-12-13T19:32:23.959Z,8.90
2018-12-13T19:34:53.337Z,10.77
2018-12-13T19:37:22.425Z,9.37
2018-12-13T19:39:52.787Z,7.43
2018-12-13T19:42:22.644Z,7.13
2018-12-13T19:44:55.371Z,7.67
2018-12-13T19:47:24.672Z,7.67
2018-12-13T19:50:00.109Z,6.80
2018-12-13T19:52:30.501Z,7.50
2018-12-13T19:55:02.591Z,8.10
2018-12-13T19:57:31.834Z,7.37
2018-12-13T20:00:04.068Z,7.77
2018-12-13T20:02:33.010Z,7.33
2018-12-13T20:05:07.178Z,6.30
2018-12-13T20:07:36.115Z,6.00
2018-12-13T20:10:09.905Z,6.83
2018-12-13T20:12:40.148Z,7.80
2018-12-13T20:15:31.653Z,6.63
2018-12-13T20:18:01.490Z,7.50
2018-12-13T20:20:32.083Z,8.77
2018-12-13T20:23:00.873Z,9.90
2018-12-13T20:25:31.097Z,7.67
2018-12-13T20:28:01.302Z,6.63
2018-12-13T20:30:31.305Z,5.77
2018-12-13T20:33:02.461Z,11.27
2018-12-13T20:35:33.085Z,6.90
2018-12-13T20:38:02.682Z,6.73
2018-12-13T20:40:31.331Z,7.63
2018-12-13T20:43:00.210Z,6.53
2018-12-13T20:45:33.803Z,9.17
2018-12-13T20:48:03.622Z,7.50
2018-12-13T20:50:32.775Z,11.13
2018-12-13T20:53:01.644Z,10.33
2018-12-13T20:55:34.863Z,11.27
2018-12-13T20:58:10.313Z,10.07
2018-12-13T21:00:41.866Z,9.97
2018-12-13T21:03:10.552Z,9.50
2018-12-13T21:05:41.912Z,8.83
2018-12-13T21:08:10.884Z,8.87
2018-12-13T21:10:43.502Z,8.43
2018-12-13T21:13:13.815Z,9.07
2018-12-13T21:15:46.831Z,9.90
2018-12-13T21:18:15.845Z,9.97
2018-12-13T21:20:49.168Z,6.50
2018-12-13T21:23:18.170Z,9.37
2018-12-13T21:25:51.114Z,7.90
2018-12-13T21:28:20.887Z,10.17
2018-12-13T21:30:53.413Z,15.73
2018-12-13T21:33:22.855Z,8.43
2018-12-13T21:35:55.934Z,7.70
2018-12-13T21:38:24.666Z,9.17
2018-12-13T21:40:58.644Z,11.47
2018-12-13T21:43:27.348Z,8.40
2018-12-13T21:46:00.440Z,10.90
2018-12-13T21:48:29.052Z,10.30
2018-12-13T21:53:31.923Z,8.57
2018-12-13T21:58:34.269Z,11.70
2018-12-13T22:01:02.841Z,8.30
2018-12-13T22:03:31.443Z,8.80
2018-12-13T22:06:00.675Z,8.83
2018-12-13T22:08:31.543Z,9.23
2018-12-13T22:11:00.066Z,8.10
2018-12-13T22:13:30.015Z,8.87
2018-12-13T22:15:58.550Z,8.03
2018-12-13T22:18:27.579Z,8.20
2018-12-13T22:20:56.370Z,8.03
2018-12-13T22:23:25.371Z,7.70
2018-12-13T22:25:54.321Z,8.30
2018-12-13T22:28:24.507Z,7.33
2018-12-13T22:30:53.030Z,8.43
2018-12-13T22:33:26.278Z,8.20
2018-12-13T22:35:55.537Z,7.73
2018-12-13T22:38:29.235Z,7.40
2018-12-13T22:40:57.798Z,6.37
2018-12-13T22:43:31.543Z,7.27
2018-12-13T22:46:03.595Z,6.57
2018-12-13T22:48:45.370Z,7.00
2018-12-13T22:51:15.673Z,7.07
2018-12-13T22:53:44.206Z,6.70
2018-12-13T22:56:12.754Z,7.30
2018-12-13T22:58:41.983Z,6.33
2018-12-13T23:01:11.903Z,6.67
2018-12-13T23:03:44.644Z,6.40
2018-12-13T23:06:14.485Z,7.23
2018-12-13T23:08:55.716Z,6.83
2018-12-13T23:11:24.945Z,6.50
2018-12-13T23:13:53.928Z,7.27
2018-12-13T23:16:22.512Z,6.53
2018-12-13T23:18:53.215Z,7.07
2018-12-13T23:21:21.760Z,6.80
2018-12-13T23:23:55.667Z,7.13
2018-12-13T23:26:24.191Z,8.00
2018-12-13T23:28:57.111Z,7.47
2018-12-13T23:31:25.898Z,7.80
2018-12-13T23:33:59.180Z,6.90
2018-12-13T23:36:28.151Z,7.20
2018-12-13T23:39:01.919Z,8.20
2018-12-13T23:41:31.054Z,7.80
2018-12-13T23:44:00.101Z,7.30
2018-12-13T23:46:29.597Z,7.67
2018-12-13T23:48:58.117Z,6.93
2018-12-13T23:51:26.679Z,7.30
2018-12-13T23:53:55.926Z,7.00
2018-12-13T23:56:24.438Z,7.63
2018-12-13T23:58:53.122Z,7.83
